^^
Station Historical Data
Daily Summary for January 14, 2018 Units:  Both    English   Metric
« Previous Day
Next Day »
Daily Weekly Monthly Yearly Custom
  High: Low: Average:
Temperature: 12.2 °F /  -11 °C -20.2 °F /  -29 °C -2.2 °F /  -19 °C
Dew Point: 11.3 °F /  -11.5 °C -23.8 °F /  -31 °C -8 °F /  -22.2 °C
Humidity: 96% 53% 77%
Wind Speed: 11.5mph /  18.5km/h - 1.9mph /  3.1km/h
Wind Gust: 11.5mph /  18.5km/h - -
Wind- - South
Pressure: 30.51 in /  1033.1 hPa 30.16 in /  1021.2 hPa -
Precipitation: 0.00 in /  0 mm    
Historical Graphs
 
 
Tabular Data for January 14, 2018
Time Temperature Dew Point Pressure Wind Wind Speed Wind Gust Humidity Rainfall Rate (Hourly) solar Conditions
00:01 -11.2 °F /  -24 °C -14.2 °F /  -25.7 °C 30.49in /  1032.4hPa Calm     86% 0.00in /  0mm 0.0 W/m2 CLR
00:18 -11.2 °F /  -24 °C -13.1 °F /  -25.1 °C 30.49in /  1032.4hPa Calm     91% 0.00in /  0mm 0.0 W/m2 CLR
00:24 -11.2 °F /  -24 °C -13.1 °F /  -25.1 °C 30.49in /  1032.4hPa Calm     91% 0.00in /  0mm 0.0 W/m2 CLR
00:32 -13.0 °F /  -25 °C -16.0 °F /  -26.7 °C 30.49in /  1032.4hPa Calm     86% 0.00in /  0mm 0.0 W/m2 CLR
00:38 -13.0 °F /  -25 °C -16.2 °F /  -26.8 °C 30.49in /  1032.4hPa Calm     85% 0.00in /  0mm 0.0 W/m2 CLR
00:48 -14.8 °F /  -26 °C -17.8 °F /  -27.7 °C 30.48in /  1032.1hPa Calm     86% 0.00in /  0mm 0.0 W/m2 CLR
01:03 -14.8 °F /  -26 °C -17.3 °F /  -27.4 °C 30.49in /  1032.4hPa Calm     88% 0.00in /  0mm 0.0 W/m2 CLR
01:10 -14.8 °F /  -26 °C -17.3 °F /  -27.4 °C 30.48in /  1032.1hPa Calm     88% 0.00in /  0mm 0.0 W/m2 CLR
01:28 -14.8 °F /  -26 °C -17.3 °F /  -27.4 °C 30.50in /  1032.7hPa Calm     88% 0.00in /  0mm 0.0 W/m2 CLR
01:43 -14.8 °F /  -26 °C -18.0 °F /  -27.8 °C 30.50in /  1032.7hPa Calm     85% 0.00in /  0mm 0.0 W/m2 CLR
01:52 -14.8 °F /  -26 °C -18.0 °F /  -27.8 °C 30.50in /  1032.7hPa Calm     85% 0.00in /  0mm 0.0 W/m2 CLR
01:58 -16.6 °F /  -27 °C -19.8 °F /  -28.8 °C 30.50in /  1032.7hPa Calm     85% 0.00in /  0mm 0.0 W/m2 CLR
02:12 -16.6 °F /  -27 °C -19.5 °F /  -28.6 °C 30.51in /  1033.1hPa Calm     86% 0.00in /  0mm 0.0 W/m2 CLR
02:25 -16.6 °F /  -27 °C -19.5 °F /  -28.6 °C 30.51in /  1033.1hPa Calm     86% 0.00in /  0mm 0.0 W/m2 CLR
02:32 -16.6 °F /  -27 °C -19.5 °F /  -28.6 °C 30.50in /  1032.7hPa Calm     86% 0.00in /  0mm 0.0 W/m2 CLR
02:37 -16.6 °F /  -27 °C -19.5 °F /  -28.6 °C 30.50in /  1032.7hPa Calm     86% 0.00in /  0mm 0.0 W/m2 CLR
02:43 -16.6 °F /  -27 °C -19.5 °F /  -28.6 °C 30.50in /  1032.7hPa Calm     86% 0.00in /  0mm 0.0 W/m2 CLR
02:49 -16.6 °F /  -27 °C -19.5 °F /  -28.6 °C 30.50in /  1032.7hPa Calm     86% 0.00in /  0mm 0.0 W/m2 CLR
03:05 -16.6 °F /  -27 °C -19.5 °F /  -28.6 °C 30.50in /  1032.7hPa Calm     86% 0.00in /  0mm 0.0 W/m2 CLR
03:18 -16.6 °F /  -27 °C -19.8 °F /  -28.8 °C 30.51in /  1033.1hPa Calm     85% 0.00in /  0mm 0.0 W/m2 CLR
03:29 -16.6 °F /  -27 °C -19.8 °F /  -28.8 °C 30.50in /  1032.7hPa Calm     85% 0.00in /  0mm 0.0 W/m2 CLR
03:35 -18.4 °F /  -28 °C -21.5 °F /  -29.7 °C 30.50in /  1032.7hPa Calm     85% 0.00in /  0mm 0.0 W/m2 CLR
03:44 -18.4 °F /  -28 °C -22.0 °F /  -30 °C 30.50in /  1032.7hPa Calm     83% 0.00in /  0mm 0.0 W/m2 CLR
03:51 -18.4 °F /  -28 °C -21.3 °F /  -29.6 °C 30.50in /  1032.7hPa Calm     86% 0.00in /  0mm 0.0 W/m2 CLR
04:01 -18.4 °F /  -28 °C -22.0 °F /  -30 °C 30.49in /  1032.4hPa Calm     83% 0.00in /  0mm 0.0 W/m2 CLR
04:22 -18.4 °F /  -28 °C -21.3 °F /  -29.6 °C 30.48in /  1032.1hPa Calm     86% 0.00in /  0mm 0.0 W/m2 CLR
04:33 -18.4 °F /  -28 °C -22.0 °F /  -30 °C 30.48in /  1032.1hPa Calm     83% 0.00in /  0mm 0.0 W/m2 CLR
04:40 -20.2 °F /  -29 °C -23.3 °F /  -30.7 °C 30.49in /  1032.4hPa Calm     85% 0.00in /  0mm 0.0 W/m2 CLR
04:46 -20.2 °F /  -29 °C -23.3 °F /  -30.7 °C 30.49in /  1032.4hPa Calm     85% 0.00in /  0mm 0.0 W/m2 CLR
05:03 -20.2 °F /  -29 °C -23.3 °F /  -30.7 °C 30.49in /  1032.4hPa Calm     85% 0.00in /  0mm 0.0 W/m2 CLR
05:10 -20.2 °F /  -29 °C -23.1 °F /  -30.6 °C 30.50in /  1032.7hPa Calm     86% 0.00in /  0mm 0.0 W/m2 CLR
06:07 -20.2 °F /  -29 °C -23.3 °F /  -30.7 °C 30.49in /  1032.4hPa Calm     85% 0.00in /  0mm 0.0 W/m2 CLR
06:12 -20.2 °F /  -29 °C -23.1 °F /  -30.6 °C 30.49in /  1032.4hPa Calm     86% 0.00in /  0mm 0.0 W/m2 CLR
06:21 -20.2 °F /  -29 °C -23.1 °F /  -30.6 °C 30.48in /  1032.1hPa Calm     86% 0.00in /  0mm 0.0 W/m2 CLR
06:27 -18.4 °F /  -28 °C -20.9 °F /  -29.4 °C 30.49in /  1032.4hPa Calm     88% 0.00in /  0mm 0.0 W/m2 CLR
06:33 -20.2 °F /  -29 °C -23.1 °F /  -30.6 °C 30.48in /  1032.1hPa Calm     86% 0.00in /  0mm 0.0 W/m2 CLR
06:41 -18.4 °F /  -28 °C -20.9 °F /  -29.4 °C 30.48in /  1032.1hPa Calm     88% 0.00in /  0mm 0.0 W/m2 CLR
06:47 -18.4 °F /  -28 °C -21.3 °F /  -29.6 °C 30.48in /  1032.1hPa Calm     86% 0.00in /  0mm 0.0 W/m2 CLR
06:52 -18.4 °F /  -28 °C -21.3 °F /  -29.6 °C 30.47in /  1031.7hPa Calm     86% 0.00in /  0mm 0.0 W/m2 CLR
07:04 -20.2 °F /  -29 °C -23.3 °F /  -30.7 °C 30.48in /  1032.1hPa Calm     85% 0.00in /  0mm 0.0 W/m2 CLR
07:13 -18.4 °F /  -28 °C -21.3 °F /  -29.6 °C 30.48in /  1032.1hPa Calm     86% 0.00in /  0mm 0.0 W/m2 CLR
07:21 -18.4 °F /  -28 °C -21.3 °F /  -29.6 °C 30.48in /  1032.1hPa Calm     86% 0.00in /  0mm 0.0 W/m2 CLR
07:28 -20.2 °F /  -29 °C -23.8 °F /  -31 °C 30.48in /  1032.1hPa Calm     83% 0.00in /  0mm 0.0 W/m2 CLR
07:34 -20.2 °F /  -29 °C -23.8 °F /  -31 °C 30.48in /  1032.1hPa Calm     83% 0.00in /  0mm 0.0 W/m2 CLR
07:44 -20.2 °F /  -29 °C -23.8 °F /  -31 °C 30.48in /  1032.1hPa Calm     83% 0.00in /  0mm 0.0 W/m2 CLR
07:50 -20.2 °F /  -29 °C -23.8 °F /  -31 °C 30.48in /  1032.1hPa Calm     83% 0.00in /  0mm 0.0 W/m2 CLR
07:55 -18.4 °F /  -28 °C -21.3 °F /  -29.6 °C 30.48in /  1032.1hPa Calm     86% 0.00in /  0mm 0.0 W/m2 CLR
08:01 -20.2 °F /  -29 °C -23.8 °F /  -31 °C 30.48in /  1032.1hPa Calm     83% 0.00in /  0mm 0.0 W/m2 CLR
08:13 -18.4 °F /  -28 °C -21.3 °F /  -29.6 °C 30.47in /  1031.7hPa Calm     86% 0.00in /  0mm 0.0 W/m2 CLR
08:25 -18.4 °F /  -28 °C -21.3 °F /  -29.6 °C 30.48in /  1032.1hPa Calm     86% 0.00in /  0mm 0.0 W/m2 CLR
08:37 -18.4 °F /  -28 °C -21.5 °F /  -29.7 °C 30.47in /  1031.7hPa Calm     85% 0.00in /  0mm 0.0 W/m2 CLR
08:45 -16.6 °F /  -27 °C -18.7 °F /  -28.2 °C 30.48in /  1032.1hPa Calm     90% 0.00in /  0mm 0.0 W/m2 CLR
09:10 -9.4 °F /  -23 °C -11.3 °F /  -24.1 °C 30.47in /  1031.7hPa SSW 2.3mph /  3.7km/h 2.3mph /  3.7km/h 91% 0.00in /  0mm 0.0 W/m2 CLR
09:26 -4.0 °F /  -20 °C -6.7 °F /  -21.5 °C 30.47in /  1031.7hPa SW 3.5mph /  5.6km/h 3.5mph /  5.6km/h 88% 0.00in /  0mm 0.0 W/m2 CLR
09:32 -4.0 °F /  -20 °C -7.9 °F /  -22.2 °C 30.47in /  1031.7hPa SW 3.5mph /  5.6km/h 3.5mph /  5.6km/h 83% 0.00in /  0mm 178.5 W/m2 CLR
09:48 -2.2 °F /  -19 °C -6.6 °F /  -21.4 °C 30.47in /  1031.7hPa WSW 4.6mph /  7.4km/h 4.6mph /  7.4km/h 81% 0.00in /  0mm 257.0 W/m2 CLR
09:56 -0.4 °F /  -18 °C -5.4 °F /  -20.8 °C 30.47in /  1031.7hPa WSW 4.6mph /  7.4km/h 4.6mph /  7.4km/h 79% 0.00in /  0mm 854.2 W/m2 CLR
10:06 -0.4 °F /  -18 °C -6.4 °F /  -21.3 °C 30.47in /  1031.7hPa WSW 5.8mph /  9.3km/h 5.8mph /  9.3km/h 75% 0.00in /  0mm 240.1 W/m2 CLR
10:12 -0.4 °F /  -18 °C -6.4 °F /  -21.3 °C 30.48in /  1032.1hPa WSW 4.6mph /  7.4km/h 4.6mph /  7.4km/h 75% 0.00in /  0mm 862.2 W/m2 CLR
10:41 1.4 °F /  -17 °C -6.4 °F /  -21.3 °C 30.45in /  1031hPa SW 8.1mph /  13km/h 8.1mph /  13km/h 69% 0.00in /  0mm 833.9 W/m2 CLR
10:47 3.2 °F /  -16 °C -5.9 °F /  -21.1 °C 30.45in /  1031hPa WSW 6.9mph /  11.1km/h 6.9mph /  11.1km/h 65% 0.00in /  0mm 876.4 W/m2 CLR
10:52 3.2 °F /  -16 °C -5.6 °F /  -20.9 °C 30.45in /  1031hPa SW 4.6mph /  7.4km/h 4.6mph /  7.4km/h 66% 0.00in /  0mm 878.4 W/m2 CLR
11:04 3.2 °F /  -16 °C -6.6 °F /  -21.4 °C 30.44in /  1030.7hPa WSW 3.5mph /  5.6km/h 3.5mph /  5.6km/h 63% 0.00in /  0mm 878.4 W/m2 CLR
11:11 5.0 °F /  -15 °C -5.5 °F /  -20.8 °C 30.43in /  1030.4hPa West 4.6mph /  7.4km/h 4.6mph /  7.4km/h 61% 0.00in /  0mm 361.0 W/m2 CLR
11:38 6.8 °F /  -14 °C -4.5 °F /  -20.3 °C 30.42in /  1030hPa SSW 4.6mph /  7.4km/h 4.6mph /  7.4km/h 59% 0.00in /  0mm 893.5 W/m2 CLR
12:23 8.6 °F /  -13 °C -3.9 °F /  -19.9 °C 30.38in /  1028.7hPa WSW 10.4mph /  16.7km/h 10.4mph /  16.7km/h 56% 0.00in /  0mm 839.0 W/m2 CLR
12:29 8.6 °F /  -13 °C -4.3 °F /  -20.2 °C 30.38in /  1028.7hPa SSE 6.9mph /  11.1km/h 6.9mph /  11.1km/h 55% 0.00in /  0mm 709.7 W/m2 CLR
12:48 10.4 °F /  -12 °C -3.4 °F /  -19.7 °C 30.37in /  1028.3hPa SW 9.2mph /  14.8km/h 9.2mph /  14.8km/h 53% 0.00in /  0mm 571.3 W/m2 CLR
12:56 10.4 °F /  -12 °C -3.0 °F /  -19.4 °C 30.36in /  1028hPa South 11.5mph /  18.5km/h 11.5mph /  18.5km/h 54% 0.00in /  0mm 548.1 W/m2 CLR
13:03 10.4 °F /  -12 °C -2.6 °F /  -19.2 °C 30.35in /  1027.7hPa South 4.6mph /  7.4km/h 4.6mph /  7.4km/h 55% 0.00in /  0mm 603.7 W/m2 CLR
13:20 10.4 °F /  -12 °C -3.0 °F /  -19.4 °C 30.34in /  1027.3hPa South 4.6mph /  7.4km/h 4.6mph /  7.4km/h 54% 0.00in /  0mm 333.0 W/m2 CLR
13:30 10.4 °F /  -12 °C -2.6 °F /  -19.2 °C 30.34in /  1027.3hPa SW 5.8mph /  9.3km/h 5.8mph /  9.3km/h 55% 0.00in /  0mm 414.8 W/m2 CLR
13:36 10.4 °F /  -12 °C -3.0 °F /  -19.4 °C 30.34in /  1027.3hPa SSE 5.8mph /  9.3km/h 5.8mph /  9.3km/h 54% 0.00in /  0mm 330.0 W/m2 CLR
13:41 10.4 °F /  -12 °C -2.6 °F /  -19.2 °C 30.33in /  1027hPa SSE 5.8mph /  9.3km/h 5.8mph /  9.3km/h 55% 0.00in /  0mm 269.4 W/m2 CLR
13:50 10.4 °F /  -12 °C -3.0 °F /  -19.4 °C 30.32in /  1026.6hPa SE 6.9mph /  11.1km/h 6.9mph /  11.1km/h 54% 0.00in /  0mm 785.5 W/m2 CLR
13:56 10.4 °F /  -12 °C -2.6 °F /  -19.2 °C 30.33in /  1027hPa SSE 6.9mph /  11.1km/h 6.9mph /  11.1km/h 55% 0.00in /  0mm 543.1 W/m2 CLR
14:03 10.4 °F /  -12 °C -2.6 °F /  -19.2 °C 30.33in /  1027hPa SSE 5.8mph /  9.3km/h 5.8mph /  9.3km/h 55% 0.00in /  0mm 552.2 W/m2 CLR
14:08 10.4 °F /  -12 °C -2.2 °F /  -19 °C 30.32in /  1026.6hPa SW 5.8mph /  9.3km/h 5.8mph /  9.3km/h 56% 0.00in /  0mm 264.0 W/m2 CLR
14:28 10.4 °F /  -12 °C -2.6 °F /  -19.2 °C 30.31in /  1026.3hPa SW 3.5mph /  5.6km/h 3.5mph /  5.6km/h 55% 0.00in /  0mm 272.4 W/m2 CLR
14:36 12.2 °F /  -11 °C -0.9 °F /  -18.3 °C 30.30in /  1026hPa South 3.5mph /  5.6km/h 3.5mph /  5.6km/h 55% 0.00in /  0mm 213.0 W/m2 CLR
14:41 12.2 °F /  -11 °C -0.9 °F /  -18.3 °C 30.31in /  1026.3hPa South 3.5mph /  5.6km/h 3.5mph /  5.6km/h 55% 0.00in /  0mm 254.2 W/m2 CLR
14:48 12.2 °F /  -11 °C -0.9 °F /  -18.3 °C 30.31in /  1026.3hPa SSW 3.5mph /  5.6km/h 3.5mph /  5.6km/h 55% 0.00in /  0mm 236.0 W/m2 CLR
15:00 12.2 °F /  -11 °C -0.9 °F /  -18.3 °C 30.30in /  1026hPa SSW 3.5mph /  5.6km/h 3.5mph /  5.6km/h 55% 0.00in /  0mm 240.1 W/m2 CLR
15:20 12.2 °F /  -11 °C -0.5 °F /  -18.1 °C 30.30in /  1026hPa NW 4.6mph /  7.4km/h 4.6mph /  7.4km/h 56% 0.00in /  0mm 223.9 W/m2 BKN
15:26 12.2 °F /  -11 °C -0.5 °F /  -18.1 °C 30.29in /  1025.6hPa WSW 5.8mph /  9.3km/h 5.8mph /  9.3km/h 56% 0.00in /  0mm 111.0 W/m2 BKN
15:37 10.4 °F /  -12 °C -1.5 °F /  -18.6 °C 30.29in /  1025.6hPa WSW 4.6mph /  7.4km/h 4.6mph /  7.4km/h 58% 0.00in /  0mm 88.0 W/m2 BKN
15:45 10.4 °F /  -12 °C -0.8 °F /  -18.2 °C 30.29in /  1025.6hPa West 3.5mph /  5.6km/h 3.5mph /  5.6km/h 60% 0.00in /  0mm 192.6 W/m2 BKN
15:51 10.4 °F /  -12 °C -0.8 °F /  -18.2 °C 30.29in /  1025.6hPa SSW 3.5mph /  5.6km/h 3.5mph /  5.6km/h 60% 0.00in /  0mm 184.5 W/m2 BKN
16:00 10.4 °F /  -12 °C -0.4 °F /  -18 °C 30.29in /  1025.6hPa SSW 2.3mph /  3.7km/h 2.3mph /  3.7km/h 61% 0.00in /  0mm 173.4 W/m2 BKN
16:05 10.4 °F /  -12 °C -0.4 °F /  -18 °C 30.29in /  1025.6hPa SW 2.3mph /  3.7km/h 2.3mph /  3.7km/h 61% 0.00in /  0mm 167.3 W/m2 OVC
16:55 10.4 °F /  -12 °C 0.3 °F /  -17.6 °C 30.27in /  1024.9hPa SE 2.3mph /  3.7km/h 2.3mph /  3.7km/h 63% 0.00in /  0mm 0.0 W/m2 OVC
17:00 10.4 °F /  -12 °C 0.3 °F /  -17.6 °C 30.27in /  1024.9hPa SSE 2.3mph /  3.7km/h 2.3mph /  3.7km/h 63% 0.00in /  0mm 42.1 W/m2 OVC
17:05 10.4 °F /  -12 °C 1.0 °F /  -17.2 °C 30.27in /  1024.9hPa SSW 2.3mph /  3.7km/h 2.3mph /  3.7km/h 65% 0.00in /  0mm 0.0 W/m2 OVC
17:22 10.4 °F /  -12 °C 1.0 °F /  -17.2 °C 30.27in /  1024.9hPa SW 3.5mph /  5.6km/h 3.5mph /  5.6km/h 65% 0.00in /  0mm 0.0 W/m2 OVC
17:37 10.4 °F /  -12 °C 1.3 °F /  -17.1 °C 30.26in /  1024.6hPa South 2.3mph /  3.7km/h   66% 0.00in /  0mm 0.0 W/m2 OVC
17:58 10.4 °F /  -12 °C 1.9 °F /  -16.7 °C 30.25in /  1024.3hPa South 3.5mph /  5.6km/h   68% 0.00in /  0mm 0.0 W/m2 OVC
18:05 10.4 °F /  -12 °C 1.3 °F /  -17.1 °C 30.25in /  1024.3hPa WSW 1.2mph /  1.9km/h 1.2mph /  1.9km/h 66% 0.00in /  0mm 0.0 W/m2 OVC
18:32 10.4 °F /  -12 °C 1.9 °F /  -16.7 °C 30.24in /  1023.9hPa SSE 2.3mph /  3.7km/h   68% 0.00in /  0mm 0.0 W/m2 OVC
18:39 10.4 °F /  -12 °C 1.9 °F /  -16.7 °C 30.23in /  1023.6hPa South 2.3mph /  3.7km/h 2.3mph /  3.7km/h 68% 0.00in /  0mm 0.0 W/m2 OVC
18:44 10.4 °F /  -12 °C 1.9 °F /  -16.7 °C 30.24in /  1023.9hPa SW 2.3mph /  3.7km/h   68% 0.00in /  0mm 0.0 W/m2 OVC
18:57 10.4 °F /  -12 °C 1.9 °F /  -16.7 °C 30.24in /  1023.9hPa ENE 3.5mph /  5.6km/h 3.5mph /  5.6km/h 68% 0.00in /  0mm 0.0 W/m2 OVC
19:05 10.4 °F /  -12 °C 2.2 °F /  -16.6 °C 30.24in /  1023.9hPa NE 3.5mph /  5.6km/h 3.5mph /  5.6km/h 69% 0.00in /  0mm 0.0 W/m2 OVC
19:19 10.4 °F /  -12 °C 2.5 °F /  -16.4 °C 30.23in /  1023.6hPa SSW 1.2mph /  1.9km/h   70% 0.00in /  0mm 0.0 W/m2 OVC
19:43 10.4 °F /  -12 °C 5.2 °F /  -14.9 °C 30.22in /  1023.2hPa East 1.2mph /  1.9km/h   79% 0.00in /  0mm 0.0 W/m2 OVC
19:55 10.4 °F /  -12 °C 5.5 °F /  -14.7 °C 30.22in /  1023.2hPa NE 2.3mph /  3.7km/h 2.3mph /  3.7km/h 80% 0.00in /  0mm 0.0 W/m2 -SN
20:06 10.4 °F /  -12 °C 5.7 °F /  -14.6 °C 30.22in /  1023.2hPa East 2.3mph /  3.7km/h   81% 0.00in /  0mm 0.0 W/m2 -SN
20:23 10.4 °F /  -12 °C 6.3 °F /  -14.3 °C 30.20in /  1022.6hPa Calm     83% 0.00in /  0mm 0.0 W/m2 -SN
20:33 10.4 °F /  -12 °C 7.0 °F /  -13.9 °C 30.20in /  1022.6hPa Calm     86% 0.00in /  0mm 0.0 W/m2 -SN
20:38 10.4 °F /  -12 °C 7.0 °F /  -13.9 °C 30.20in /  1022.6hPa Calm     86% 0.00in /  0mm 0.0 W/m2 -SN
20:44 10.4 °F /  -12 °C 7.6 °F /  -13.6 °C 30.20in /  1022.6hPa Calm     88% 0.00in /  0mm 0.0 W/m2 -SN
20:59 10.4 °F /  -12 °C 7.0 °F /  -13.9 °C 30.20in /  1022.6hPa Calm     86% 0.00in /  0mm 0.0 W/m2 -SN
21:11 10.4 °F /  -12 °C 7.6 °F /  -13.6 °C 30.20in /  1022.6hPa Calm     88% 0.00in /  0mm 0.0 W/m2 -SN
21:34 10.4 °F /  -12 °C 7.6 °F /  -13.6 °C 30.19in /  1022.2hPa Calm     88% 0.00in /  0mm 0.0 W/m2 -SN
21:42 10.4 °F /  -12 °C 7.6 °F /  -13.6 °C 30.19in /  1022.2hPa Calm     88% 0.00in /  0mm 0.0 W/m2 -SN
21:49 12.2 °F /  -11 °C 9.8 °F /  -12.3 °C 30.19in /  1022.2hPa Calm     90% 0.00in /  0mm 0.0 W/m2 -SN
21:58 12.2 °F /  -11 °C 10.1 °F /  -12.2 °C 30.19in /  1022.2hPa Calm     91% 0.00in /  0mm 0.0 W/m2 -SN
22:30 12.2 °F /  -11 °C 11.0 °F /  -11.7 °C 30.19in /  1022.2hPa SSW 1.2mph /  1.9km/h 1.2mph /  1.9km/h 95% 0.00in /  0mm 0.0 W/m2 -SN
22:35 12.2 °F /  -11 °C 11.0 °F /  -11.7 °C 30.18in /  1021.9hPa NE 1.2mph /  1.9km/h   95% 0.00in /  0mm 0.0 W/m2 -SN
22:44 12.2 °F /  -11 °C 11.3 °F /  -11.5 °C 30.18in /  1021.9hPa East 1.2mph /  1.9km/h   96% 0.00in /  0mm 0.0 W/m2 -SN
22:50 12.2 °F /  -11 °C 11.3 °F /  -11.5 °C 30.18in /  1021.9hPa ENE 1.2mph /  1.9km/h 1.2mph /  1.9km/h 96% 0.00in /  0mm 0.0 W/m2 -SN
23:01 12.2 °F /  -11 °C 11.3 °F /  -11.5 °C 30.18in /  1021.9hPa South 1.2mph /  1.9km/h   96% 0.00in /  0mm 0.0 W/m2 -SN
23:07 12.2 °F /  -11 °C 11.3 °F /  -11.5 °C 30.17in /  1021.6hPa Calm     96% 0.00in /  0mm 0.0 W/m2 -SN
23:13 12.2 °F /  -11 °C 11.3 °F /  -11.5 °C 30.17in /  1021.6hPa Calm     96% 0.00in /  0mm 0.0 W/m2 -SN
23:53 12.2 °F /  -11 °C 11.3 °F /  -11.5 °C 30.16in /  1021.2hPa Calm     96% 0.00in /  0mm 0.0 W/m2 -SN
Juneau County Weather
Compliments of Weather Underground - 4.75 mb